Time;durP1;ratioP1;P1;durP2;ratioP2;P2;SDS_P1;SDS_P2;PMS_P1;PMS_P2;Temp;Humidity;BMP_temperature;BMP_pressure;BME280_temperature;BME280_humidity;BME280_pressure;Samples;Min_cycle;Max_cycle;Signal;HPM_P1;HPM_P2
2022/11/26 00:00:34;;;;;;;;;;;;;;;6.76;100.00;101041.13;6277944;22;19911;-79
2022/11/26 00:02:59;;;;;;;;;;;;;;;6.82;100.00;101048.53;6250415;22;19918;-79
2022/11/26 00:05:28;;;;;;;;;;;;;;;6.79;100.00;101046.16;6250568;22;19978;-80
2022/11/26 00:07:55;;;;;;;;;;;;;;;6.88;100.00;101055.91;6277837;22;19911;-79
2022/11/26 00:10:25;;;;;;;;;;;;;;;6.84;100.00;101048.38;6277796;22;19965;-80
2022/11/26 00:12:51;;;;;;;;;;;;;;;6.71;100.00;101046.75;6277790;22;19930;-81
2022/11/26 00:15:18;;;;;;;;;;;;;;;6.71;100.00;101049.38;6277746;22;19919;-79
2022/11/26 00:17:43;;;;;;;;;;;;;;;6.78;100.00;101044.47;6278534;22;19915;-80
2022/11/26 00:20:09;;;;;;;;;;;;;;;6.76;100.00;101036.66;6278316;22;20362;-80
2022/11/26 00:22:38;;;;;;;;;;;;;;;6.81;100.00;101038.09;6278464;22;19911;-80
2022/11/26 00:25:04;;;;;;;;;;;;;;;6.80;100.00;101037.25;6278664;22;20347;-79
2022/11/26 00:27:29;;;;;;;;;;;;;;;6.85;100.00;101044.78;6277951;22;20022;-80
2022/11/26 00:29:55;;;;;;;;;;;;;;;6.81;100.00;101046.00;6278042;22;19922;-82
2022/11/26 00:32:22;;;;;;;;;;;;;;;6.95;100.00;101045.72;6277724;22;19957;-80
2022/11/26 00:34:47;;;;;;;;;;;;;;;6.85;100.00;101050.06;6277690;22;19964;-80
2022/11/26 00:37:18;;;;;;;;;;;;;;;6.95;100.00;101053.63;6277540;22;19941;-80
2022/11/26 00:39:44;;;;;;;;;;;;;;;6.95;100.00;101056.25;6278011;22;20284;-79
2022/11/26 00:42:09;;;;;;;;;;;;;;;6.89;100.00;101062.88;6251500;22;19906;-80
2022/11/26 00:44:35;;;;;;;;;;;;;;;6.88;100.00;101062.97;6279001;22;19911;-79
2022/11/26 00:47:00;;;;;;;;;;;;;;;6.90;100.00;101064.53;6278705;22;19926;-78
2022/11/26 00:49:27;;;;;;;;;;;;;;;6.93;100.00;101060.78;6278619;22;19911;-80
2022/11/26 00:51:53;;;;;;;;;;;;;;;6.94;100.00;101065.13;6278155;22;19915;-79
2022/11/26 00:54:18;;;;;;;;;;;;;;;7.00;100.00;101073.34;6278210;22;20322;-80
2022/11/26 00:56:45;;;;;;;;;;;;;;;6.98;100.00;101071.81;6278111;22;20009;-81
2022/11/26 00:59:16;;;;;;;;;;;;;;;6.99;100.00;101078.75;6251081;22;19907;-80
2022/11/26 01:01:41;;;;;;;;;;;;;;;6.97;100.00;101070.13;6278279;22;19912;-79
2022/11/26 01:04:06;;;;;;;;;;;;;;;7.15;100.00;101068.63;6278852;22;19922;-79
2022/11/26 01:06:33;;;;;;;;;;;;;;;7.17;100.00;101071.97;6279369;22;19911;-79
2022/11/26 01:08:59;;;;;;;;;;;;;;;7.24;100.00;101075.78;6279195;22;20393;-80
2022/11/26 01:11:25;;;;;;;;;;;;;;;7.28;100.00;101085.09;6278810;22;19930;-80
2022/11/26 01:13:51;;;;;;;;;;;;;;;7.24;100.00;101078.41;6251385;22;19907;-79
2022/11/26 01:16:19;;;;;;;;;;;;;;;7.13;100.00;101075.81;6278487;22;19911;-79
2022/11/26 01:18:44;;;;;;;;;;;;;;;7.12;100.00;101076.78;6279243;22;19922;-79
2022/11/26 01:21:10;;;;;;;;;;;;;;;7.04;100.00;101081.84;6279527;22;19915;-80
2022/11/26 01:23:36;;;;;;;;;;;;;;;7.10;100.00;101076.06;6279586;22;19911;-79
2022/11/26 01:26:01;;;;;;;;;;;;;;;7.07;100.00;101077.16;6279957;22;19967;-80
2022/11/26 01:28:26;;;;;;;;;;;;;;;7.10;100.00;101076.06;6279054;22;20002;-80
2022/11/26 01:30:52;;;;;;;;;;;;;;;7.19;100.00;101076.13;6252789;22;19907;-79
2022/11/26 01:33:17;;;;;;;;;;;;;;;7.25;100.00;101075.66;6279695;22;19911;-80
2022/11/26 01:35:43;;;;;;;;;;;;;;;7.33;100.00;101080.28;6280562;22;19911;-80
2022/11/26 01:38:11;;;;;;;;;;;;;;;7.24;100.00;101067.84;6278921;22;19915;-80
2022/11/26 01:40:36;;;;;;;;;;;;;;;7.17;100.00;101083.34;6276881;22;19994;-79
2022/11/26 01:43:05;;;;;;;;;;;;;;;7.13;100.00;101081.91;6278817;22;19911;-80
2022/11/26 01:45:30;;;;;;;;;;;;;;;7.11;100.00;101078.59;6278592;22;20305;-80
2022/11/26 01:47:56;;;;;;;;;;;;;;;7.02;100.00;101083.78;6278630;22;19955;-80
2022/11/26 01:50:30;;;;;;;;;;;;;;;7.01;100.00;101082.09;6278499;22;19917;-82
2022/11/26 01:53:00;;;;;;;;;;;;;;;7.01;100.00;101088.22;6278013;22;19911;-81
2022/11/26 01:55:30;;;;;;;;;;;;;;;7.04;100.00;101081.84;6278542;22;19918;-81
2022/11/26 01:57:55;;;;;;;;;;;;;;;7.04;100.00;101089.75;6278206;22;19989;-79
2022/11/26 02:00:20;;;;;;;;;;;;;;;7.06;100.00;101082.56;6277662;22;19911;-79
2022/11/26 02:02:46;;;;;;;;;;;;;;;7.00;100.00;101086.53;6250280;22;19918;-80
2022/11/26 02:05:21;;;;;;;;;;;;;;;6.96;100.00;101084.28;6277406;22;19911;-80
2022/11/26 02:07:47;;;;;;;;;;;;;;;6.99;100.00;101089.31;6277386;22;19912;-81
2022/11/26 02:10:13;;;;;;;;;;;;;;;6.97;100.00;101091.22;6279136;22;19911;-79
2022/11/26 02:12:39;;;;;;;;;;;;;;;6.95;100.00;101093.16;6280636;22;20037;-79
2022/11/26 02:15:05;;;;;;;;;;;;;;;7.00;100.00;101090.97;6279211;22;20233;-80
2022/11/26 02:17:30;;;;;;;;;;;;;;;7.02;100.00;101100.44;6279219;22;19946;-79
2022/11/26 02:20:02;;;;;;;;;;;;;;;7.10;100.00;101091.88;6279443;22;19999;-79
2022/11/26 02:22:49;;;;;;;;;;;;;;;7.09;100.00;101096.31;6280719;22;19911;-80
2022/11/26 02:25:20;;;;;;;;;;;;;;;7.11;100.00;101096.19;6280638;22;19953;-78
2022/11/26 02:28:05;;;;;;;;;;;;;;;7.13;100.00;101092.47;6280931;22;19993;-80
2022/11/26 02:30:35;;;;;;;;;;;;;;;7.37;100.00;101101.94;6280609;22;19942;-79
2022/11/26 02:33:00;;;;;;;;;;;;;;;7.48;100.00;101108.03;6281082;22;19908;-80
2022/11/26 02:35:35;;;;;;;;;;;;;;;7.31;100.00;101111.22;6280191;22;20444;-80
2022/11/26 02:38:10;;;;;;;;;;;;;;;7.28;100.00;101119.38;6280223;22;20245;-81
2022/11/26 02:40:35;;;;;;;;;;;;;;;7.35;100.00;101128.47;6227929;22;19911;-79
2022/11/26 02:43:00;;;;;;;;;;;;;;;7.39;100.00;101121.94;6280124;22;20039;-79
2022/11/26 02:45:29;;;;;;;;;;;;;;;7.55;100.00;101116.25;6279946;22;19921;-80
2022/11/26 02:47:56;;;;;;;;;;;;;;;7.45;100.00;101123.25;6279657;22;19919;-80
2022/11/26 02:50:42;;;;;;;;;;;;;;;7.44;100.00;101116.31;6279524;22;19911;-79
2022/11/26 02:53:09;;;;;;;;;;;;;;;7.41;100.00;101120.03;6252703;22;19990;-79
2022/11/26 02:55:38;;;;;;;;;;;;;;;7.33;100.00;101119.81;6279367;22;20302;-79
2022/11/26 02:58:04;;;;;;;;;;;;;;;7.29;100.00;101123.69;6252355;22;20231;-80
2022/11/26 03:00:31;;;;;;;;;;;;;;;7.27;100.00;101120.34;6227448;22;19911;-80
2022/11/26 03:03:09;;;;;;;;;;;;;;;7.37;100.00;101123.03;6280075;22;20305;-79
2022/11/26 03:05:35;;;;;;;;;;;;;;;7.47;100.00;101124.78;6278557;22;19911;-79
2022/11/26 03:08:02;;;;;;;;;;;;;;;7.37;100.00;101129.16;6278155;22;20042;-79
2022/11/26 03:10:28;;;;;;;;;;;;;;;7.22;100.00;101128.59;6278148;22;19911;-80
2022/11/26 03:12:54;;;;;;;;;;;;;;;7.25;100.00;101123.13;6277988;22;19914;-80
2022/11/26 03:15:19;;;;;;;;;;;;;;;7.19;100.00;101130.69;6285009;22;19950;-79
2022/11/26 03:17:45;;;;;;;;;;;;;;;7.15;100.00;101122.19;6256734;22;19957;-81
2022/11/26 03:20:10;;;;;;;;;;;;;;;7.15;100.00;101137.16;6278014;22;19907;-78
2022/11/26 03:22:36;;;;;;;;;;;;;;;7.14;100.00;101132.84;6278008;22;20056;-80
2022/11/26 03:25:02;;;;;;;;;;;;;;;7.18;100.00;101135.13;6278490;22;19907;-80
2022/11/26 03:27:27;;;;;;;;;;;;;;;7.13;100.00;101124.09;6250718;22;20275;-80
2022/11/26 03:29:52;;;;;;;;;;;;;;;7.08;100.00;101125.44;6277950;22;19911;-78
2022/11/26 03:32:18;;;;;;;;;;;;;;;7.02;100.00;101131.22;6278211;22;19903;-80
2022/11/26 03:34:43;;;;;;;;;;;;;;;7.01;100.00;101129.53;6278086;22;19914;-79
2022/11/26 03:37:09;;;;;;;;;;;;;;;6.97;100.00;101136.00;6277680;22;19953;-80
2022/11/26 03:39:34;;;;;;;;;;;;;;;7.04;100.00;101134.56;6279050;22;19917;-79
2022/11/26 03:41:59;;;;;;;;;;;;;;;7.15;100.00;101132.72;6279020;22;19907;-80
2022/11/26 03:44:25;;;;;;;;;;;;;;;7.08;100.00;101130.72;6278703;22;19907;-79
2022/11/26 03:46:50;;;;;;;;;;;;;;;7.08;100.00;101131.56;6278181;22;19926;-80
2022/11/26 03:49:15;;;;;;;;;;;;;;;7.09;100.00;101127.13;6278309;22;19911;-79
2022/11/26 03:51:41;;;;;;;;;;;;;;;7.14;100.00;101136.31;6278230;22;19926;-80
2022/11/26 03:54:06;;;;;;;;;;;;;;;7.12;100.00;101140.91;6278131;22;19926;-80
2022/11/26 03:56:32;;;;;;;;;;;;;;;7.20;100.00;101142.88;6277948;22;19911;-80
2022/11/26 03:58:57;;;;;;;;;;;;;;;7.21;100.00;101150.69;6250853;22;19918;-79
2022/11/26 04:01:22;;;;;;;;;;;;;;;7.19;100.00;101159.69;6278066;22;20313;-79
2022/11/26 04:03:48;;;;;;;;;;;;;;;7.16;100.00;101166.00;6277460;22;19964;-80
2022/11/26 04:06:14;;;;;;;;;;;;;;;7.05;100.00;101165.22;6277568;22;19912;-80
2022/11/26 04:08:39;;;;;;;;;;;;;;;6.91;100.00;101168.13;6277581;22;20352;-82
2022/11/26 04:11:05;;;;;;;;;;;;;;;6.91;100.00;101163.69;6277678;22;20326;-80
2022/11/26 04:13:30;;;;;;;;;;;;;;;6.87;100.00;101170.16;6277489;22;19990;-80
2022/11/26 04:15:55;;;;;;;;;;;;;;;7.11;100.00;101172.63;6277283;22;19998;-80
2022/11/26 04:18:21;;;;;;;;;;;;;;;6.96;100.00;101176.50;6250592;22;19922;-78
2022/11/26 04:20:46;;;;;;;;;;;;;;;7.02;100.00;101178.66;6277468;22;19953;-80
2022/11/26 04:23:11;;;;;;;;;;;;;;;6.96;100.00;101179.16;6250144;22;19918;-80
2022/11/26 04:25:37;;;;;;;;;;;;;;;6.94;100.00;101181.06;6277691;22;19965;-79
2022/11/26 04:28:02;;;;;;;;;;;;;;;6.84;100.00;101190.66;6277391;22;20377;-80
2022/11/26 04:30:28;;;;;;;;;;;;;;;6.82;100.00;101189.94;6277922;22;20211;-81
2022/11/26 04:32:53;;;;;;;;;;;;;;;6.75;100.00;101192.22;6277072;22;19956;-80
2022/11/26 04:35:18;;;;;;;;;;;;;;;6.68;100.00;101199.78;6277304;22;19926;-80
2022/11/26 04:37:44;;;;;;;;;;;;;;;6.78;100.00;101194.63;6277591;22;19911;-81
2022/11/26 04:40:10;;;;;;;;;;;;;;;6.78;100.00;101204.31;6277064;22;19934;-79
2022/11/26 04:42:35;;;;;;;;;;;;;;;6.82;100.00;101208.38;6277224;22;19946;-79
2022/11/26 04:45:01;;;;;;;;;;;;;;;6.92;100.00;101204.06;6277788;22;19915;-80
2022/11/26 04:47:26;;;;;;;;;;;;;;;6.89;100.00;101209.59;6277203;22;19919;-80
2022/11/26 04:49:51;;;;;;;;;;;;;;;6.98;100.00;101214.09;6277319;22;19915;-79
2022/11/26 04:52:17;;;;;;;;;;;;;;;7.08;100.00;101210.63;6277001;22;19911;-80
2022/11/26 04:54:42;;;;;;;;;;;;;;;7.08;100.00;101217.69;6277512;22;19911;-81
2022/11/26 04:57:08;;;;;;;;;;;;;;;7.03;100.00;101225.09;6277034;22;19911;-79
2022/11/26 04:59:33;;;;;;;;;;;;;;;6.91;100.00;101226.94;6277067;22;19945;-79
2022/11/26 05:01:58;;;;;;;;;;;;;;;6.87;100.00;101237.81;6277026;22;19911;-80
2022/11/26 05:04:25;;;;;;;;;;;;;;;6.90;100.00;101243.69;6277209;22;19913;-80
2022/11/26 05:06:50;;;;;;;;;;;;;;;6.88;100.00;101235.09;6277281;22;19915;-79
2022/11/26 05:09:15;;;;;;;;;;;;;;;6.80;100.00;101244.53;6277007;22;19994;-79
2022/11/26 05:11:41;;;;;;;;;;;;;;;6.76;100.00;101249.22;6277262;22;19971;-80
2022/11/26 05:14:07;;;;;;;;;;;;;;;6.56;100.00;101249.94;6277433;22;20310;-80
2022/11/26 05:16:32;;;;;;;;;;;;;;;6.71;100.00;101259.28;6276967;22;19911;-79
2022/11/26 05:18:57;;;;;;;;;;;;;;;6.70;100.00;101262.84;6277127;22;20294;-80
2022/11/26 05:21:23;;;;;;;;;;;;;;;6.72;100.00;101261.81;6276839;22;19911;-80
2022/11/26 05:23:48;;;;;;;;;;;;;;;6.39;100.00;101258.28;6277230;22;19992;-79
2022/11/26 05:26:14;;;;;;;;;;;;;;;6.23;100.00;101256.00;6276749;22;19965;-78
2022/11/26 05:28:39;;;;;;;;;;;;;;;6.25;100.00;101267.22;6249648;22;19911;-79
2022/11/26 05:31:05;;;;;;;;;;;;;;;6.25;100.00;101269.88;6277378;22;19911;-80
2022/11/26 05:33:30;;;;;;;;;;;;;;;6.28;100.00;101269.63;6276520;22;19964;-80
2022/11/26 05:35:55;;;;;;;;;;;;;;;6.28;100.00;101267.00;6276608;22;20296;-77
2022/11/26 05:38:21;;;;;;;;;;;;;;;6.20;100.00;101279.88;6276693;22;19926;-80
2022/11/26 05:40:47;;;;;;;;;;;;;;;6.14;100.00;101289.09;6276790;22;19917;-78
2022/11/26 05:43:12;;;;;;;;;;;;;;;6.07;100.00;101289.66;6248996;22;20226;-79
2022/11/26 05:45:37;;;;;;;;;;;;;;;6.00;100.00;101296.34;6276419;22;19977;-79
2022/11/26 05:48:04;;;;;;;;;;;;;;;5.90;100.00;101292.72;6277061;22;19911;-80
2022/11/26 05:50:30;;;;;;;;;;;;;;;5.94;100.00;101281.84;6276692;22;19930;-80
2022/11/26 05:52:56;;;;;;;;;;;;;;;5.74;100.00;101274.53;6276825;22;19911;-80
2022/11/26 05:55:21;;;;;;;;;;;;;;;5.72;100.00;101273.84;6276787;22;19956;-80
2022/11/26 05:57:47;;;;;;;;;;;;;;;5.76;100.00;101275.28;6276660;22;19933;-80
2022/11/26 06:00:12;;;;;;;;;;;;;;;5.55;100.00;101275.06;6276785;22;19911;-80
2022/11/26 06:02:39;;;;;;;;;;;;;;;5.41;100.00;101277.84;6276400;22;19919;-78
2022/11/26 06:05:04;;;;;;;;;;;;;;;5.38;100.00;101274.59;6276387;22;19911;-80
2022/11/26 06:07:30;;;;;;;;;;;;;;;5.32;100.00;101281.13;6281371;22;19926;-82
2022/11/26 06:09:55;;;;;;;;;;;;;;;5.30;100.00;101285.69;6276700;22;19911;-81
2022/11/26 06:12:21;;;;;;;;;;;;;;;5.08;100.00;101290.75;6250216;22;19911;-80
2022/11/26 06:14:46;;;;;;;;;;;;;;;4.90;100.00;101290.28;6278681;22;19935;-78
2022/11/26 06:17:11;;;;;;;;;;;;;;;4.61;100.00;101288.81;6278572;22;19915;-79
2022/11/26 06:19:37;;;;;;;;;;;;;;;4.53;100.00;101286.72;6277531;22;20291;-80
2022/11/26 06:22:03;;;;;;;;;;;;;;;4.58;100.00;101289.00;6278031;22;19911;-81
2022/11/26 06:24:28;;;;;;;;;;;;;;;4.67;100.00;101283.97;6278239;22;19911;-80
2022/11/26 06:26:53;;;;;;;;;;;;;;;4.75;100.00;101287.84;6249749;22;19911;-78
2022/11/26 06:29:19;;;;;;;;;;;;;;;4.47;100.00;101295.03;6276486;22;19911;-79
2022/11/26 06:31:44;;;;;;;;;;;;;;;4.24;100.00;101298.34;6276751;22;19911;-81
2022/11/26 06:34:13;;;;;;;;;;;;;;;4.20;100.00;101296.03;6276922;22;19905;-79
2022/11/26 06:36:39;;;;;;;;;;;;;;;4.08;100.00;101292.44;6277145;22;19911;-81
2022/11/26 06:39:04;;;;;;;;;;;;;;;3.77;100.00;101295.41;6277458;22;19981;-81
2022/11/26 06:41:30;;;;;;;;;;;;;;;3.65;100.00;101292.63;6274898;22;19911;-81
2022/11/26 06:43:55;;;;;;;;;;;;;;;3.70;100.00;101287.09;6275982;22;19933;-80
2022/11/26 06:46:20;;;;;;;;;;;;;;;3.59;100.00;101293.03;6275564;22;19911;-81
2022/11/26 06:48:49;;;;;;;;;;;;;;;3.68;100.00;101293.38;6248751;22;19911;-78
2022/11/26 06:51:15;;;;;;;;;;;;;;;3.54;100.00;101304.75;6276599;22;19911;-83
2022/11/26 06:53:40;;;;;;;;;;;;;;;3.46;100.00;101300.00;6276328;22;20041;-83
2022/11/26 06:56:09;;;;;;;;;;;;;;;3.44;100.00;101296.63;6278364;22;20539;-81
2022/11/26 06:58:35;;;;;;;;;;;;;;;3.46;100.00;101302.59;6253113;22;19907;-83
2022/11/26 07:01:06;;;;;;;;;;;;;;;3.49;100.00;101306.81;6279133;22;19953;-80
2022/11/26 07:03:31;;;;;;;;;;;;;;;3.52;100.00;101306.59;6278404;22;19961;-81
2022/11/26 07:05:56;;;;;;;;;;;;;;;3.46;100.00;101299.16;6278633;22;20334;-81
2022/11/26 07:08:22;;;;;;;;;;;;;;;3.42;100.00;101300.28;6252033;22;19910;-84
2022/11/26 07:10:47;;;;;;;;;;;;;;;3.35;100.00;101297.19;6251214;22;20340;-81
2022/11/26 07:13:13;;;;;;;;;;;;;;;3.39;100.00;101301.31;6278056;22;20334;-80
2022/11/26 07:15:38;;;;;;;;;;;;;;;3.58;100.00;101306.22;6278571;22;19921;-83
2022/11/26 07:18:03;;;;;;;;;;;;;;;3.78;100.00;101312.81;6279205;22;19907;-79
2022/11/26 07:20:29;;;;;;;;;;;;;;;3.81;100.00;101307.38;6279152;22;19911;-82
2022/11/26 07:22:54;;;;;;;;;;;;;;;3.85;100.00;101308.84;6278825;22;19911;-83
2022/11/26 07:25:20;;;;;;;;;;;;;;;3.91;100.00;101309.28;6279397;22;19911;-82
2022/11/26 07:27:45;;;;;;;;;;;;;;;4.00;100.00;101318.34;6278866;22;19965;-82
2022/11/26 07:30:11;;;;;;;;;;;;;;;4.09;100.00;101317.72;6278556;22;19945;-80
2022/11/26 07:32:37;;;;;;;;;;;;;;;4.16;100.00;101325.09;6278262;22;19941;-81
2022/11/26 07:35:03;;;;;;;;;;;;;;;3.99;100.00;101335.00;6277906;22;19910;-84
2022/11/26 07:37:28;;;;;;;;;;;;;;;3.89;100.00;101344.41;6251203;22;19911;-81
2022/11/26 07:39:54;;;;;;;;;;;;;;;3.74;100.00;101333.16;6278238;22;19911;-80
2022/11/26 07:42:19;;;;;;;;;;;;;;;3.67;100.00;101341.50;6251505;22;20287;-81
2022/11/26 07:44:44;;;;;;;;;;;;;;;3.72;100.00;101340.25;6278484;22;19982;-81
2022/11/26 07:47:10;;;;;;;;;;;;;;;3.75;100.00;101344.44;6277724;22;19915;-82
2022/11/26 07:49:36;;;;;;;;;;;;;;;3.72;100.00;101344.66;6277330;22;20238;-81
2022/11/26 07:52:01;;;;;;;;;;;;;;;3.79;100.00;101357.28;6277411;22;19918;-82
2022/11/26 07:54:27;;;;;;;;;;;;;;;4.01;100.00;101367.25;6277415;22;19977;-83
2022/11/26 07:56:52;;;;;;;;;;;;;;;3.98;100.00;101372.66;6277815;22;19949;-83
2022/11/26 07:59:17;;;;;;;;;;;;;;;4.01;100.00;101377.72;6279051;22;19919;-84
2022/11/26 08:01:43;;;;;;;;;;;;;;;4.00;100.00;101381.28;6225980;22;19911;-84
2022/11/26 08:04:08;;;;;;;;;;;;;;;4.01;100.00;101388.22;6278723;22;19912;-83
2022/11/26 08:06:34;;;;;;;;;;;;;;;4.31;100.00;101396.69;6277920;22;19912;-81
2022/11/26 08:09:01;;;;;;;;;;;;;;;4.31;100.00;101399.31;6279993;22;20298;-82
2022/11/26 08:11:27;;;;;;;;;;;;;;;4.31;100.00;101406.38;6284021;22;20284;-81
2022/11/26 08:13:54;;;;;;;;;;;;;;;4.37;100.00;101405.97;6280789;22;19945;-80
2022/11/26 08:16:19;;;;;;;;;;;;;;;4.40;100.00;101411.00;6280192;22;20238;-81
2022/11/26 08:18:45;;;;;;;;;;;;;;;4.34;100.00;101422.72;6280136;22;19913;-81
2022/11/26 08:21:10;;;;;;;;;;;;;;;4.31;100.00;101425.56;6278818;22;19931;-83
2022/11/26 08:23:36;;;;;;;;;;;;;;;4.50;100.00;101428.69;6278953;22;20245;-83
2022/11/26 08:26:04;;;;;;;;;;;;;;;4.49;100.00;101437.47;6278911;22;19934;-83
2022/11/26 08:28:29;;;;;;;;;;;;;;;4.58;100.00;101442.13;6278925;22;19918;-81
2022/11/26 08:31:05;;;;;;;;;;;;;;;4.75;100.00;101461.16;6281082;22;19911;-84
2022/11/26 08:33:30;;;;;;;;;;;;;;;4.89;100.00;101459.31;6280388;22;19918;-82
2022/11/26 08:35:56;;;;;;;;;;;;;;;5.03;100.00;101467.13;6286976;22;19911;-82
2022/11/26 08:38:21;;;;;;;;;;;;;;;5.11;100.00;101467.41;6286813;22;19942;-82
2022/11/26 08:40:47;;;;;;;;;;;;;;;5.15;100.00;101465.44;6257890;22;20284;-81
2022/11/26 08:43:12;;;;;;;;;;;;;;;5.05;100.00;101467.00;6282704;22;19915;-84
2022/11/26 08:45:38;;;;;;;;;;;;;;;5.07;100.00;101480.88;6283699;22;19918;-81
2022/11/26 08:48:03;;;;;;;;;;;;;;;5.06;100.00;101479.19;6283052;22;19911;-84
2022/11/26 08:50:29;;;;;;;;;;;;;;;5.12;100.00;101490.13;6282696;22;19955;-82
2022/11/26 08:52:54;;;;;;;;;;;;;;;5.24;100.00;101498.94;6282260;22;19911;-83
2022/11/26 08:55:20;;;;;;;;;;;;;;;5.20;100.00;101502.75;6283217;22;19964;-83
2022/11/26 08:57:45;;;;;;;;;;;;;;;5.23;100.00;101515.69;6280634;22;19950;-81
2022/11/26 09:00:11;;;;;;;;;;;;;;;5.24;100.00;101517.34;6251354;22;19911;-82
2022/11/26 09:02:36;;;;;;;;;;;;;;;5.29;100.00;101531.03;6250895;22;20242;-81
2022/11/26 09:05:05;;;;;;;;;;;;;;;5.30;100.00;101524.84;6277464;22;19915;-82
2022/11/26 09:07:30;;;;;;;;;;;;;;;5.59;100.00;101526.31;6277845;22;20014;-81
2022/11/26 09:09:56;;;;;;;;;;;;;;;5.43;100.00;101523.06;6250097;22;19996;-81
2022/11/26 09:12:22;;;;;;;;;;;;;;;5.55;100.00;101534.50;6278007;22;20250;-85
2022/11/26 09:14:47;;;;;;;;;;;;;;;5.57;100.00;101528.19;6278277;22;19911;-81
2022/11/26 09:17:12;;;;;;;;;;;;;;;5.53;100.00;101528.53;6250497;22;20388;-83
2022/11/26 09:19:38;;;;;;;;;;;;;;;5.60;100.00;101541.13;6250438;22;20242;-82
2022/11/26 09:22:03;;;;;;;;;;;;;;;5.81;100.00;101546.69;6277250;22;19942;-83
2022/11/26 09:24:29;;;;;;;;;;;;;;;5.87;100.00;101543.66;6277502;22;19914;-82
2022/11/26 09:26:54;;;;;;;;;;;;;;;6.23;100.00;101537.63;6277903;22;20330;-86
2022/11/26 09:29:20;;;;;;;;;;;;;;;6.04;100.00;101542.50;6250538;22;19911;-85
2022/11/26 09:31:46;;;;;;;;;;;;;;;5.83;100.00;101539.56;6278365;22;19994;-86
2022/11/26 09:34:12;;;;;;;;;;;;;;;5.81;100.00;101535.34;6251001;22;20302;-88
2022/11/26 09:36:38;;;;;;;;;;;;;;;5.82;100.00;101537.03;6251281;22;19911;-83
2022/11/26 09:39:04;;;;;;;;;;;;;;;5.90;100.00;101542.66;6251186;22;19911;-81
2022/11/26 09:41:48;;;;;;;;;;;;;;;5.90;100.00;101534.75;6279321;22;19911;-83
2022/11/26 09:44:25;;;;;;;;;;;;;;;5.90;100.00;101540.81;6280022;22;19968;-84
2022/11/26 09:47:11;;;;;;;;;;;;;;;5.95;100.00;101537.88;6278296;22;19911;-84
2022/11/26 09:49:41;;;;;;;;;;;;;;;6.17;100.00;101536.25;6279544;22;20361;-83
2022/11/26 09:52:08;;;;;;;;;;;;;;;6.28;100.00;101532.00;6251991;22;19956;-83
2022/11/26 09:54:33;;;;;;;;;;;;;;;6.28;100.00;101532.88;6278890;22;19907;-84
2022/11/26 09:57:06;;;;;;;;;;;;;;;6.65;100.00;101525.78;6279482;22;19915;-87
2022/11/26 09:59:33;;;;;;;;;;;;;;;6.81;100.00;101528.13;6279546;22;19907;-84
2022/11/26 10:01:59;;;;;;;;;;;;;;;6.98;100.00;101525.06;6278879;22;19969;-86
2022/11/26 10:04:28;;;;;;;;;;;;;;;6.76;100.00;101524.03;6252234;22;19907;-85
2022/11/26 10:06:54;;;;;;;;;;;;;;;6.63;100.00;101527.66;6282257;22;19986;-84
2022/11/26 10:09:30;;;;;;;;;;;;;;;6.41;100.00;101525.75;6290515;22;19911;-84
2022/11/26 10:11:55;;;;;;;;;;;;;;;6.34;100.00;101524.53;6288916;22;20283;-84
2022/11/26 10:14:24;;;;;;;;;;;;;;;6.33;100.00;101524.66;6291474;22;19959;-84
2022/11/26 10:16:55;;;;;;;;;;;;;;;6.40;100.00;101524.06;6283736;22;19911;-86
2022/11/26 10:19:24;;;;;;;;;;;;;;;6.63;100.00;101520.59;6285194;22;19912;-84
2022/11/26 10:21:53;;;;;;;;;;;;;;;6.80;100.00;101521.16;6285623;22;19911;-83
2022/11/26 10:24:33;;;;;;;;;;;;;;;7.08;100.00;101511.09;6288765;22;19911;-83
2022/11/26 10:27:00;;;;;;;;;;;;;;;7.19;100.00;101513.75;6290225;22;19915;-84
2022/11/26 10:29:29;;;;;;;;;;;;;;;7.25;100.00;101513.31;6255640;22;20006;-82
2022/11/26 10:32:06;;;;;;;;;;;;;;;7.28;100.00;101510.44;6282485;22;20335;-85
2022/11/26 10:34:41;;;;;;;;;;;;;;;7.41;100.00;101507.69;6254423;22;20219;-83
2022/11/26 10:37:09;;;;;;;;;;;;;;;7.42;100.00;101517.28;6281994;22;19915;-83
2022/11/26 10:39:34;;;;;;;;;;;;;;;7.58;100.00;101504.59;6285330;22;19911;-86
2022/11/26 10:42:10;;;;;;;;;;;;;;;7.81;100.00;101508.09;6254612;22;20000;-82
2022/11/26 10:44:38;;;;;;;;;;;;;;;7.74;100.00;101510.34;6279579;22;19922;-86
2022/11/26 10:47:33;;;;;;;;;;;;;;;7.88;100.00;101506.63;6279955;22;19911;-81
2022/11/26 10:50:01;;;;;;;;;;;;;;;8.07;100.00;101487.53;6254025;22;19910;-84
2022/11/26 10:52:29;;;;;;;;;;;;;;;8.00;100.00;101496.91;6279852;22;19922;-82
2022/11/26 10:55:27;;;;;;;;;;;;;;;8.04;100.00;101491.25;6251650;22;20227;-84
2022/11/26 10:57:57;;;;;;;;;;;;;;;8.21;100.00;101492.56;6213941;22;19930;-85
2022/11/26 11:00:26;;;;;;;;;;;;;;;8.30;100.00;101502.41;6280306;22;20229;-84
2022/11/26 11:02:51;;;;;;;;;;;;;;;8.42;100.00;101509.34;6279802;22;19911;-85
2022/11/26 11:05:19;;;;;;;;;;;;;;;8.49;100.00;101505.22;6279919;22;19986;-82
2022/11/26 11:07:44;;;;;;;;;;;;;;;8.43;100.00;101497.81;6278936;22;19915;-83
2022/11/26 11:10:10;;;;;;;;;;;;;;;8.67;100.00;101506.38;6279213;22;19917;-85
2022/11/26 11:12:39;;;;;;;;;;;;;;;8.75;100.00;101501.28;6251686;22;20223;-85
2022/11/26 11:15:17;;;;;;;;;;;;;;;8.94;100.00;101500.63;6279734;22;19942;-82
2022/11/26 11:17:43;;;;;;;;;;;;;;;8.94;100.00;101502.44;6278756;22;19914;-82
2022/11/26 11:20:14;;;;;;;;;;;;;;;8.87;100.00;101496.81;6278739;22;20298;-83
2022/11/26 11:22:41;;;;;;;;;;;;;;;8.98;100.00;101498.56;6278968;22;19915;-82
2022/11/26 11:25:20;;;;;;;;;;;;;;;9.17;100.00;101496.06;6278469;22;19903;-82
2022/11/26 11:27:45;;;;;;;;;;;;;;;9.06;100.00;101491.66;6278183;22;19947;-82
2022/11/26 11:30:28;;;;;;;;;;;;;;;9.06;100.00;101490.81;6251129;22;20322;-81
2022/11/26 11:33:07;;;;;;;;;;;;;;;9.21;100.00;101489.53;6278917;22;19913;-82
2022/11/26 11:35:33;;;;;;;;;;;;;;;9.13;100.00;101495.47;6251246;22;19918;-82
2022/11/26 11:37:59;;;;;;;;;;;;;;;9.28;100.00;101501.25;6278160;22;19987;-83
2022/11/26 11:40:26;;;;;;;;;;;;;;;9.40;100.00;101500.22;6251648;22;19907;-82
2022/11/26 11:42:54;;;;;;;;;;;;;;;9.31;100.00;101501.03;6278403;22;19942;-84
2022/11/26 11:45:38;;;;;;;;;;;;;;;9.45;100.00;101507.75;6251960;22;19965;-82
2022/11/26 11:48:24;;;;;;;;;;;;;;;9.57;100.00;101504.94;6251235;22;20325;-81
2022/11/26 11:50:54;;;;;;;;;;;;;;;9.59;100.00;101507.44;6256900;22;20241;-84
2022/11/26 11:53:22;;;;;;;;;;;;;;;9.76;100.00;101502.38;6279017;22;19934;-82
2022/11/26 11:55:53;;;;;;;;;;;;;;;9.73;100.00;101496.50;6279022;22;19911;-84
2022/11/26 11:58:28;;;;;;;;;;;;;;;9.76;100.00;101502.38;6278316;22;20238;-82
2022/11/26 12:00:56;;;;;;;;;;;;;;;9.70;100.00;101510.84;6278389;22;19918;-82
2022/11/26 12:03:22;;;;;;;;;;;;;;;9.60;100.00;101512.59;6278395;22;19911;-81
2022/11/26 12:05:58;;;;;;;;;;;;;;;9.66;100.00;101512.06;6278425;22;19953;-82
2022/11/26 12:08:29;;;;;;;;;;;;;;;9.65;100.00;101507.75;6251142;22;19982;-82
2022/11/26 12:11:08;;;;;;;;;;;;;;;9.73;100.00;101507.94;6278770;22;19911;-82
2022/11/26 12:13:43;;;;;;;;;;;;;;;9.91;100.00;101504.66;6225727;22;19954;-83
2022/11/26 12:16:11;;;;;;;;;;;;;;;9.89;100.00;101510.06;6279105;22;19917;-81
2022/11/26 12:18:56;;;;;;;;;;;;;;;9.91;100.00;101512.59;6283053;22;19931;-82
2022/11/26 12:21:32;;;;;;;;;;;;;;;9.83;100.00;101519.41;6256421;22;19911;-81
2022/11/26 12:23:58;;;;;;;;;;;;;;;10.00;100.00;101506.50;6284099;22;19911;-82
2022/11/26 12:26:31;;;;;;;;;;;;;;;9.74;100.00;101508.78;6278965;22;19915;-84
2022/11/26 12:29:01;;;;;;;;;;;;;;;9.80;100.00;101514.38;6278837;22;20282;-81
2022/11/26 12:31:29;;;;;;;;;;;;;;;9.85;100.00;101516.59;6278549;22;20334;-82
2022/11/26 12:33:59;;;;;;;;;;;;;;;9.91;100.00;101515.25;6251667;22;19961;-83
2022/11/26 12:36:28;;;;;;;;;;;;;;;9.76;100.00;101517.41;6278490;22;19911;-82